Accueil
METAR-TAF:

METAR-TAF

Aéroports :

Aéroport d'Édimbourg

Édimbourg, Écosse

latitude: 55-57N, longitude: 003-21W, altitude: 41 m

Observation

Le bulletin a été fait il y a 27 minutes, à 12:50 UTC
Vent 5 kt de sud, variant entre sud-est et sud-ouest
Température 4°C
Humidité 60%
Pression 1021 hPa
Visibilité 10 km ou plus
pas de nuages en-dessous de 1500 mètres et pas de cumulonimbus.

METAR: EGPH 141250Z 19005KT 140V220 CAVOK 04/M03 Q1021

Heure: 13:17 (13:17 UTC)

Prévision

Le bulletin a été fait il y a 2 heures et 21 minutes, à 10:56 UTC
Prévision valable du 14 à 12 UTC au 15 à 12 UTC
Vent 8 kt de est/sud-est
Visibilité 10 km ou plus
Quelques nuages à une hauteur de 3000 ft
Probabilité 30% :
Temporairement
du 15 à 10 UTC au 15 à 12 UTC
Visibilité: 5000 m
neige faible, pluie

TAF: EGPH 141056Z 1412/1512 12008KT 9999 FEW030 PROB30 TEMPO 1510/1512 5000 -SNRA

Observations et prévisions météorologiques de plus de 4000 aéroports (messages METAR et TAF).

Les stations disponibles sont représentées par des disques jaunes et rouges sur la carte.

Passer la souris dessus pour voir le nom de la station.

Cliquer dessus pour voir les observations et prévisions météorologiques.

Pour changer de carte: cliquez sur les boutons verts avec une croix noire pour zoomer, sur le bouton vert avec un tiret pour effectuer un zoom arrière, ou sur les flèches vertes pour les cartes adjacentes.


METAR-TAF: